createdAt,value
2019-02-23T00:01:33.139Z,87.95
2019-02-23T00:04:03.885Z,87.01
2019-02-23T00:06:34.390Z,86.67
2019-02-23T00:09:06.595Z,86.71
2019-02-23T00:11:37.278Z,86.56
2019-02-23T00:14:07.653Z,86.09
2019-02-23T00:16:38.560Z,85.55
2019-02-23T00:19:08.872Z,84.86
2019-02-23T00:21:39.184Z,84.42
2019-02-23T00:24:09.887Z,83.02
2019-02-23T00:26:40.417Z,83.23
2019-02-23T00:29:10.721Z,82.03
2019-02-23T00:31:41.278Z,80.25
2019-02-23T00:34:12.045Z,79.89
2019-02-23T00:36:42.345Z,79.54
2019-02-23T00:39:12.978Z,79.58
2019-02-23T00:41:43.440Z,80.69
2019-02-23T00:44:14.176Z,80.15
2019-02-23T00:46:44.611Z,78.62
2019-02-23T00:49:14.921Z,76.08
2019-02-23T00:51:45.725Z,74.80
2019-02-23T00:54:16.493Z,75.01
2019-02-23T00:56:46.762Z,75.13
2019-02-23T00:59:17.203Z,75.55
2019-02-23T01:01:47.578Z,76.62
2019-02-23T01:04:17.883Z,76.50
2019-02-23T01:06:48.345Z,75.37
2019-02-23T01:09:19.241Z,74.64
2019-02-23T01:11:49.564Z,75.10
2019-02-23T01:14:20.120Z,74.49
2019-02-23T01:16:50.383Z,73.67
2019-02-23T01:19:21.199Z,74.71
2019-02-23T01:21:51.824Z,74.68
2019-02-23T01:24:22.198Z,72.87
2019-02-23T01:26:52.583Z,73.65
2019-02-23T01:29:22.939Z,72.54
2019-02-23T01:31:53.239Z,72.71
2019-02-23T01:34:23.520Z,72.54
2019-02-23T01:36:54.190Z,73.01
2019-02-23T01:39:24.500Z,71.85
2019-02-23T01:41:54.769Z,71.97
2019-02-23T01:44:25.567Z,70.41
2019-02-23T01:46:56.002Z,71.55
2019-02-23T01:49:26.394Z,73.41
2019-02-23T01:51:57.073Z,73.98
2019-02-23T01:54:29.229Z,73.43
2019-02-23T01:56:59.565Z,74.94
2019-02-23T01:59:30.205Z,75.21
2019-02-23T02:02:01.035Z,76.53
2019-02-23T02:04:31.392Z,76.84
2019-02-23T02:07:01.977Z,77.23
2019-02-23T02:09:32.558Z,77.33
2019-02-23T02:12:03.640Z,77.30
2019-02-23T02:14:33.942Z,76.84
2019-02-23T02:17:04.661Z,76.95
2019-02-23T02:19:35.394Z,76.29
2019-02-23T02:22:06.175Z,76.45
2019-02-23T02:24:36.434Z,76.74
2019-02-23T02:27:07.030Z,76.20
2019-02-23T02:29:37.734Z,76.20
2019-02-23T02:32:08.057Z,76.24
2019-02-23T02:34:39.399Z,77.15
2019-02-23T02:37:09.976Z,77.14
2019-02-23T02:39:40.246Z,76.90
2019-02-23T02:42:10.520Z,76.32
2019-02-23T02:44:41.131Z,75.92
2019-02-23T02:47:11.629Z,76.49
2019-02-23T02:49:42.286Z,76.74
2019-02-23T02:52:12.615Z,77.01
2019-02-23T02:54:42.929Z,78.18
2019-02-23T02:57:13.593Z,78.49
2019-02-23T02:59:43.863Z,78.28
2019-02-23T03:02:14.167Z,79.24
2019-02-23T03:04:44.948Z,79.08
2019-02-23T03:07:15.454Z,78.97
2019-02-23T03:09:45.774Z,78.81
2019-02-23T03:12:16.550Z,78.90
2019-02-23T03:14:47.304Z,78.00
2019-02-23T03:17:17.578Z,78.04
2019-02-23T03:19:48.273Z,78.63
2019-02-23T03:22:18.594Z,78.43
2019-02-23T03:24:49.099Z,78.20
2019-02-23T03:27:19.433Z,77.47
2019-02-23T03:29:49.755Z,76.61
2019-02-23T03:32:20.408Z,75.33
2019-02-23T03:34:50.789Z,75.65
2019-02-23T03:37:21.144Z,76.06
2019-02-23T03:39:51.783Z,76.16
2019-02-23T03:42:22.534Z,76.33
2019-02-23T03:44:52.799Z,76.15
2019-02-23T03:47:23.195Z,75.76
2019-02-23T03:49:53.749Z,75.64
2019-02-23T03:52:24.057Z,76.15
2019-02-23T03:54:55.474Z,76.14
2019-02-23T03:57:25.768Z,76.53
2019-02-23T03:59:56.112Z,76.15
2019-02-23T04:02:26.509Z,76.08
2019-02-23T04:04:56.775Z,76.31
2019-02-23T04:07:27.316Z,76.03
2019-02-23T04:09:57.935Z,75.87
2019-02-23T04:12:29.223Z,76.00
2019-02-23T04:14:59.530Z,74.04
2019-02-23T04:17:30.155Z,75.39
2019-02-23T04:20:00.468Z,73.33
2019-02-23T04:22:30.727Z,73.68
2019-02-23T04:25:02.541Z,72.00
2019-02-23T04:27:32.906Z,72.90
2019-02-23T04:30:03.297Z,73.71
2019-02-23T04:32:33.939Z,75.05
2019-02-23T04:35:04.413Z,75.45
2019-02-23T04:37:35.088Z,75.99
2019-02-23T04:40:05.668Z,76.47
2019-02-23T04:42:35.943Z,76.06
2019-02-23T04:45:07.049Z,75.32
2019-02-23T04:47:37.543Z,75.07
2019-02-23T04:50:08.137Z,75.20
2019-02-23T04:52:38.753Z,74.12
2019-02-23T04:55:09.318Z,74.16
2019-02-23T04:57:39.665Z,73.69
2019-02-23T05:00:11.146Z,74.70
2019-02-23T05:02:41.445Z,74.92
2019-02-23T05:05:12.017Z,74.91
2019-02-23T05:07:42.505Z,74.45
2019-02-23T05:10:13.752Z,74.33
2019-02-23T05:12:44.562Z,74.31
2019-02-23T05:15:15.403Z,72.38
2019-02-23T05:17:45.694Z,72.96
2019-02-23T05:20:16.327Z,72.82
2019-02-23T05:22:46.894Z,72.47
2019-02-23T05:25:17.204Z,73.43
2019-02-23T05:27:47.672Z,74.65
2019-02-23T05:30:17.939Z,74.05
2019-02-23T05:32:49.112Z,73.55
2019-02-23T05:35:19.704Z,73.70
2019-02-23T05:37:50.207Z,73.71
2019-02-23T05:40:20.984Z,72.67
2019-02-23T05:43:00.451Z,72.78
2019-02-23T05:45:23.762Z,73.36
2019-02-23T05:47:54.262Z,69.44
2019-02-23T05:50:24.837Z,69.42
2019-02-23T05:52:55.118Z,68.58
2019-02-23T05:55:25.391Z,69.14
2019-02-23T05:57:55.811Z,68.73
2019-02-23T06:00:26.065Z,68.69
2019-02-23T06:02:56.387Z,68.02
2019-02-23T06:05:26.772Z,67.31
2019-02-23T06:07:57.126Z,68.14
2019-02-23T06:10:27.408Z,68.15
2019-02-23T06:12:58.088Z,67.10
2019-02-23T06:15:28.952Z,67.07
2019-02-23T06:17:59.253Z,66.76
2019-02-23T06:20:29.924Z,66.78
2019-02-23T06:23:00.742Z,66.46
2019-02-23T06:25:31.032Z,66.92
2019-02-23T06:28:01.374Z,67.19
2019-02-23T06:30:31.749Z,67.95
2019-02-23T06:33:02.042Z,68.50
2019-02-23T06:35:32.607Z,68.00
2019-02-23T06:38:03.217Z,67.90
2019-02-23T06:40:33.791Z,67.91
2019-02-23T06:43:05.377Z,67.94
2019-02-23T06:45:35.735Z,68.32
2019-02-23T06:48:06.541Z,69.17
2019-02-23T06:50:37.147Z,67.84
2019-02-23T06:53:07.425Z,68.73
2019-02-23T06:55:37.916Z,66.31
2019-02-23T06:58:08.591Z,66.45
2019-02-23T07:00:38.875Z,66.03
2019-02-23T07:03:09.204Z,64.99
2019-02-23T07:05:39.742Z,65.28
2019-02-23T07:08:10.634Z,64.77
2019-02-23T07:10:41.185Z,63.85
2019-02-23T07:13:11.489Z,63.30
2019-02-23T07:15:42.034Z,62.63
2019-02-23T07:18:12.707Z,62.35
2019-02-23T07:20:44.436Z,63.08
2019-02-23T07:23:15.384Z,63.13
2019-02-23T07:25:45.840Z,63.55
2019-02-23T07:28:16.162Z,64.06
2019-02-23T07:30:46.447Z,63.57
2019-02-23T07:33:29.554Z,64.39
2019-02-23T07:35:49.434Z,62.72
2019-02-23T07:38:20.289Z,60.96
2019-02-23T07:40:50.554Z,60.13
2019-02-23T07:43:20.845Z,60.29
2019-02-23T07:45:52.675Z,60.18
2019-02-23T07:48:22.982Z,61.19
2019-02-23T07:50:53.318Z,62.06
2019-02-23T07:53:24.005Z,60.75
2019-02-23T07:55:54.385Z,63.61
2019-02-23T07:58:24.972Z,63.35
2019-02-23T08:00:55.417Z,59.76
2019-02-23T08:03:26.071Z,58.95
2019-02-23T08:05:56.416Z,57.80
2019-02-23T08:08:27.232Z,56.24
2019-02-23T08:10:57.817Z,57.43
2019-02-23T08:13:28.080Z,57.52
2019-02-23T08:15:58.714Z,58.38
2019-02-23T08:18:29.322Z,60.10
2019-02-23T08:20:59.691Z,60.42
2019-02-23T08:23:30.251Z,60.83
2019-02-23T08:26:00.839Z,59.79
2019-02-23T08:28:32.267Z,61.78
2019-02-23T08:31:02.538Z,60.48
2019-02-23T08:33:33.133Z,59.38
2019-02-23T08:36:03.575Z,57.95
2019-02-23T08:38:33.960Z,56.44
2019-02-23T08:41:05.611Z,57.01
2019-02-23T08:43:35.896Z,56.43
2019-02-23T08:46:06.662Z,57.29
2019-02-23T08:48:36.930Z,53.79
2019-02-23T08:51:07.481Z,50.68
2019-02-23T08:53:38.283Z,51.70
2019-02-23T08:56:08.596Z,52.28
2019-02-23T08:58:38.911Z,51.76
2019-02-23T09:01:09.314Z,54.73
2019-02-23T09:03:40.027Z,55.24
2019-02-23T09:06:10.380Z,54.15
2019-02-23T09:08:40.886Z,55.19
2019-02-23T09:11:12.058Z,52.65
2019-02-23T09:13:42.535Z,51.92
2019-02-23T09:16:13.054Z,52.89
2019-02-23T09:18:43.330Z,50.30
2019-02-23T09:21:13.838Z,49.47
2019-02-23T09:23:44.561Z,50.21
2019-02-23T09:26:14.834Z,51.52
2019-02-23T09:28:45.385Z,48.25
2019-02-23T09:31:15.804Z,48.68
2019-02-23T09:33:46.139Z,48.36
2019-02-23T09:36:17.667Z,48.86
2019-02-23T09:38:48.271Z,49.27
2019-02-23T09:41:18.586Z,50.67
2019-02-23T09:43:49.165Z,51.85
2019-02-23T09:46:19.804Z,53.26
2019-02-23T09:48:50.405Z,48.62
2019-02-23T09:51:21.069Z,51.19
2019-02-23T09:53:52.414Z,46.43
2019-02-23T09:56:23.106Z,46.99
2019-02-23T09:58:53.542Z,47.27
2019-02-23T10:01:23.835Z,46.74
2019-02-23T10:03:54.483Z,46.56
2019-02-23T10:06:25.494Z,48.43
2019-02-23T10:08:55.886Z,49.89
2019-02-23T10:11:26.159Z,49.43
2019-02-23T10:13:56.994Z,49.24
2019-02-23T10:16:27.505Z,50.10
2019-02-23T10:18:57.859Z,48.97
2019-02-23T10:21:28.500Z,50.66
2019-02-23T10:23:59.133Z,51.89
2019-02-23T10:26:29.686Z,53.00
2019-02-23T10:29:00.294Z,52.18
2019-02-23T10:31:30.913Z,52.76
2019-02-23T10:34:01.196Z,53.12
2019-02-23T10:36:31.917Z,52.87
2019-02-23T10:39:02.721Z,53.37
2019-02-23T10:41:34.714Z,50.48
2019-02-23T10:44:05.032Z,52.02
2019-02-23T10:46:36.086Z,53.65
2019-02-23T10:49:06.382Z,51.27
2019-02-23T10:51:37.156Z,50.30
2019-02-23T10:54:07.458Z,49.96
2019-02-23T10:56:37.850Z,51.16
2019-02-23T10:59:08.445Z,51.36
2019-02-23T11:01:38.766Z,52.21
2019-02-23T11:04:09.309Z,50.50
2019-02-23T11:06:39.869Z,51.07
2019-02-23T11:09:15.298Z,51.99
2019-02-23T11:11:48.298Z,48.48
2019-02-23T11:14:18.392Z,48.91
2019-02-23T11:16:49.299Z,48.94
2019-02-23T11:19:19.603Z,48.06
2019-02-23T11:21:50.600Z,48.82
2019-02-23T11:24:21.160Z,48.63
2019-02-23T11:26:51.812Z,47.74
2019-02-23T11:29:22.160Z,47.43
2019-02-23T11:31:52.820Z,47.67
2019-02-23T11:34:23.553Z,46.75
2019-02-23T11:36:54.151Z,48.48
2019-02-23T11:39:24.453Z,47.28
2019-02-23T11:41:55.375Z,48.24
2019-02-23T11:44:26.083Z,46.28
2019-02-23T11:47:00.330Z,46.80
2019-02-23T11:49:28.612Z,45.98
2019-02-23T11:51:59.458Z,47.27
2019-02-23T11:54:29.801Z,48.35
2019-02-23T11:57:00.344Z,46.43
2019-02-23T11:59:33.537Z,46.79
2019-02-23T12:02:04.239Z,47.87
2019-02-23T12:04:34.918Z,46.71
2019-02-23T12:07:05.337Z,48.53
2019-02-23T12:09:35.698Z,48.18
2019-02-23T12:12:06.458Z,48.13
2019-02-23T12:14:36.727Z,47.16
2019-02-23T12:17:07.280Z,46.73
2019-02-23T12:19:37.809Z,47.64
2019-02-23T12:22:12.349Z,48.13
2019-02-23T12:24:40.155Z,49.00
2019-02-23T12:27:10.820Z,49.26
2019-02-23T12:29:42.586Z,48.20
2019-02-23T12:32:13.286Z,47.29
2019-02-23T12:34:43.556Z,44.79
2019-02-23T12:37:14.066Z,45.00
2019-02-23T12:39:44.813Z,46.03
2019-02-23T12:42:15.093Z,46.68
2019-02-23T12:44:45.422Z,46.97
2019-02-23T12:47:16.235Z,48.33
2019-02-23T12:49:46.608Z,49.45
2019-02-23T12:52:17.019Z,48.24
2019-02-23T12:54:47.707Z,49.19
2019-02-23T12:57:18.326Z,48.36
2019-02-23T12:59:48.986Z,48.41
2019-02-23T13:02:19.327Z,49.73
2019-02-23T13:04:49.769Z,48.65
2019-02-23T13:07:20.827Z,48.91
2019-02-23T13:09:53.498Z,50.22
2019-02-23T13:12:45.564Z,49.61
2019-02-23T13:15:22.963Z,49.20
2019-02-23T13:18:42.500Z,50.39
2019-02-23T13:21:26.956Z,50.23
2019-02-23T13:24:38.965Z,50.39
2019-02-23T13:27:48.660Z,49.14
2019-02-23T13:30:45.349Z,49.09
2019-02-23T13:33:38.657Z,46.66
2019-02-23T13:36:51.895Z,48.13
2019-02-23T13:40:06.165Z,48.30
2019-02-23T13:43:07.338Z,48.44
2019-02-23T13:45:53.761Z,47.50
2019-02-23T13:49:20.837Z,48.71
2019-02-23T13:52:41.286Z,49.76
2019-02-23T13:56:19.874Z,48.92
2019-02-23T13:59:27.697Z,49.47
2019-02-23T14:02:32.181Z,48.25
2019-02-23T14:05:43.045Z,48.66
2019-02-23T14:09:12.946Z,45.61
2019-02-23T14:12:21.622Z,47.15
2019-02-23T14:15:22.274Z,47.43
2019-02-23T14:18:24.319Z,46.53
2019-02-23T14:21:34.742Z,45.51
2019-02-23T14:24:50.006Z,43.48
2019-02-23T14:27:39.277Z,43.17
2019-02-23T14:30:49.358Z,40.76
2019-02-23T14:34:13.210Z,41.22
2019-02-23T14:37:27.131Z,41.53
2019-02-23T14:40:41.624Z,40.49
2019-02-23T14:43:40.339Z,41.01
2019-02-23T14:46:47.382Z,43.45
2019-02-23T14:49:54.245Z,45.26
2019-02-23T14:53:08.507Z,46.31
2019-02-23T14:56:41.303Z,46.64
2019-02-23T14:59:51.148Z,47.31
2019-02-23T15:03:00.725Z,47.82
2019-02-23T15:06:02.446Z,49.46
2019-02-23T15:08:56.092Z,47.52
2019-02-23T15:11:57.364Z,47.23
2019-02-23T15:15:11.481Z,46.86
2019-02-23T15:18:12.838Z,47.62
2019-02-23T15:21:18.996Z,47.34
2019-02-23T15:24:26.213Z,48.04
2019-02-23T15:27:30.056Z,49.52
2019-02-23T15:30:38.434Z,48.78
2019-02-23T15:33:47.170Z,48.88
2019-02-23T15:37:00.637Z,47.83
2019-02-23T15:39:55.469Z,47.44
2019-02-23T15:43:02.330Z,47.36
2019-02-23T15:46:16.326Z,46.90
2019-02-23T15:49:27.690Z,46.89
2019-02-23T15:51:58.457Z,47.54
2019-02-23T15:54:30.300Z,48.09
2019-02-23T15:57:00.621Z,49.39
2019-02-23T15:59:31.392Z,49.55
2019-02-23T16:02:02.083Z,50.96
2019-02-23T16:04:32.407Z,50.54
2019-02-23T16:07:02.985Z,50.74
2019-02-23T16:09:33.489Z,52.38
2019-02-23T16:12:04.137Z,52.20
2019-02-23T16:14:34.502Z,51.95
2019-02-23T16:17:04.862Z,52.50
2019-02-23T16:19:35.257Z,52.70
2019-02-23T16:22:06.504Z,53.76
2019-02-23T16:24:36.836Z,53.04
2019-02-23T16:27:07.725Z,54.13
2019-02-23T16:29:38.978Z,53.36
2019-02-23T16:32:09.433Z,53.37
2019-02-23T16:34:40.225Z,54.00
2019-02-23T16:37:10.780Z,54.56
2019-02-23T16:39:41.122Z,54.67
2019-02-23T16:42:11.681Z,53.80
2019-02-23T16:44:43.157Z,53.88
2019-02-23T16:47:13.590Z,53.90
2019-02-23T16:49:44.054Z,53.83
2019-02-23T16:52:14.448Z,54.25
2019-02-23T16:54:45.515Z,53.74
2019-02-23T16:57:17.493Z,53.56
2019-02-23T16:59:47.915Z,53.16
2019-02-23T17:02:18.538Z,53.36
2019-02-23T17:04:53.578Z,53.07
2019-02-23T17:07:21.295Z,53.15
2019-02-23T17:09:51.987Z,53.47
2019-02-23T17:12:22.576Z,53.24
2019-02-23T17:14:53.060Z,54.04
2019-02-23T17:17:23.687Z,53.67
2019-02-23T17:19:54.088Z,53.53
2019-02-23T17:22:24.812Z,54.10
2019-02-23T17:24:55.748Z,53.45
2019-02-23T17:27:35.740Z,53.74
2019-02-23T17:29:58.214Z,53.18
2019-02-23T17:32:28.880Z,53.49
2019-02-23T17:34:59.200Z,54.46
2019-02-23T17:37:29.518Z,55.21
2019-02-23T17:40:00.427Z,55.03
2019-02-23T17:42:30.814Z,54.45
2019-02-23T17:45:01.298Z,55.81
2019-02-23T17:47:32.938Z,55.63
2019-02-23T17:50:03.380Z,54.71
2019-02-23T17:52:34.058Z,55.36
2019-02-23T17:55:04.747Z,54.25
2019-02-23T17:57:35.157Z,54.97
2019-02-23T18:00:06.264Z,55.79
2019-02-23T18:02:36.609Z,55.96
2019-02-23T18:05:06.987Z,55.52
2019-02-23T18:07:37.626Z,55.72
2019-02-23T18:10:08.151Z,56.17
2019-02-23T18:12:38.618Z,56.04
2019-02-23T18:15:09.278Z,56.13
2019-02-23T18:17:40.061Z,57.56
2019-02-23T18:20:11.569Z,56.93
2019-02-23T18:22:43.018Z,57.43
2019-02-23T18:25:13.464Z,57.54
2019-02-23T18:27:44.173Z,57.28
2019-02-23T18:30:14.606Z,58.19
2019-02-23T18:32:45.093Z,57.60
2019-02-23T18:35:15.723Z,58.67
2019-02-23T18:37:46.479Z,57.76
2019-02-23T18:40:16.803Z,56.89
2019-02-23T18:42:47.411Z,56.85
2019-02-23T18:45:17.777Z,56.69
2019-02-23T18:47:48.225Z,56.64
2019-02-23T18:50:18.634Z,57.07
2019-02-23T18:52:49.087Z,57.27
2019-02-23T18:55:19.696Z,57.74
2019-02-23T18:57:50.383Z,56.30
2019-02-23T19:00:24.464Z,57.31
2019-02-23T19:02:53.185Z,56.72
2019-02-23T19:05:23.718Z,57.58
2019-02-23T19:07:54.049Z,58.25
2019-02-23T19:10:24.568Z,58.65
2019-02-23T19:12:54.989Z,58.08
2019-02-23T19:15:25.367Z,57.54
2019-02-23T19:17:55.678Z,57.64
2019-02-23T19:20:26.393Z,57.91
2019-02-23T19:22:56.891Z,57.52
2019-02-23T19:25:27.172Z,58.13
2019-02-23T19:27:57.903Z,57.10
2019-02-23T19:30:28.348Z,58.37
2019-02-23T19:32:58.728Z,58.26
2019-02-23T19:35:29.554Z,57.44
2019-02-23T19:38:00.216Z,57.27
2019-02-23T19:40:30.500Z,57.58
2019-02-23T19:43:00.909Z,58.75
2019-02-23T19:45:31.477Z,58.20
2019-02-23T19:48:02.087Z,57.83
2019-02-23T19:50:37.263Z,58.23
2019-02-23T19:53:08.227Z,58.18
2019-02-23T19:55:38.595Z,57.61
2019-02-23T19:58:09.379Z,58.56
2019-02-23T20:00:39.730Z,58.38
2019-02-23T20:03:10.431Z,59.06
2019-02-23T20:05:42.269Z,57.83
2019-02-23T20:08:12.665Z,58.60
2019-02-23T20:10:43.338Z,58.16
2019-02-23T20:13:13.759Z,58.63
2019-02-23T20:15:44.065Z,57.73
2019-02-23T20:18:14.382Z,58.22
2019-02-23T20:20:45.044Z,58.73
2019-02-23T20:23:15.421Z,58.49
2019-02-23T20:25:45.737Z,58.34
2019-02-23T20:28:16.448Z,58.62
2019-02-23T20:30:46.856Z,58.95
2019-02-23T20:33:19.117Z,58.66
2019-02-23T20:35:49.439Z,58.82
2019-02-23T20:38:19.778Z,58.79
2019-02-23T20:40:50.493Z,58.86
2019-02-23T20:43:20.881Z,58.97
2019-02-23T20:45:51.177Z,58.61
2019-02-23T20:48:22.236Z,58.56
2019-02-23T20:50:52.789Z,58.76
2019-02-23T20:53:23.421Z,57.89
2019-02-23T20:55:54.202Z,57.98
2019-02-23T20:58:24.855Z,58.20
2019-02-23T21:00:55.249Z,58.03
2019-02-23T21:03:25.587Z,58.57
2019-02-23T21:05:55.943Z,57.95
2019-02-23T21:08:26.786Z,57.59
2019-02-23T21:10:57.108Z,57.74
2019-02-23T21:13:27.452Z,58.61
2019-02-23T21:15:58.317Z,57.24
2019-02-23T21:18:29.069Z,58.00
2019-02-23T21:20:59.498Z,58.43
2019-02-23T21:23:30.127Z,58.06
2019-02-23T21:26:00.948Z,58.17
2019-02-23T21:28:32.197Z,58.24
2019-02-23T21:31:02.674Z,58.27
2019-02-23T21:33:33.129Z,58.43
2019-02-23T21:36:04.828Z,58.27
2019-02-23T21:38:36.277Z,58.51
2019-02-23T21:41:06.566Z,59.00
2019-02-23T21:43:36.965Z,59.11
2019-02-23T21:46:07.609Z,59.10
2019-02-23T21:48:37.934Z,58.66
2019-02-23T21:51:08.405Z,58.24
2019-02-23T21:53:39.155Z,59.39
2019-02-23T21:56:09.521Z,59.31
2019-02-23T21:58:39.948Z,58.55
2019-02-23T22:01:11.667Z,58.06
2019-02-23T22:03:42.169Z,59.08
2019-02-23T22:06:12.838Z,59.18
2019-02-23T22:08:43.166Z,59.01
2019-02-23T22:11:13.597Z,59.01
2019-02-23T22:13:44.138Z,58.81
2019-02-23T22:16:14.539Z,58.47
2019-02-23T22:18:45.093Z,59.36
2019-02-23T22:21:15.919Z,59.75
2019-02-23T22:23:46.335Z,58.96
2019-02-23T22:26:16.617Z,59.53
2019-02-23T22:28:47.338Z,58.75
2019-02-23T22:31:18.007Z,58.00
2019-02-23T22:33:48.346Z,59.71
2019-02-23T22:36:18.980Z,58.69
2019-02-23T22:38:49.322Z,57.78
2019-02-23T22:41:20.036Z,58.03
2019-02-23T22:43:50.350Z,57.63
2019-02-23T22:46:20.682Z,58.24
2019-02-23T22:48:51.323Z,57.74
2019-02-23T22:51:21.830Z,57.83
2019-02-23T22:53:52.447Z,58.07
2019-02-23T22:56:23.113Z,58.15
2019-02-23T22:58:53.761Z,57.96
2019-02-23T23:01:24.047Z,58.24
2019-02-23T23:03:54.874Z,58.19
2019-02-23T23:06:25.543Z,58.34
2019-02-23T23:08:55.994Z,58.41
2019-02-23T23:11:26.310Z,58.55
2019-02-23T23:13:56.608Z,58.38
2019-02-23T23:16:27.356Z,58.23
2019-02-23T23:18:58.601Z,58.53
2019-02-23T23:21:28.876Z,58.93
2019-02-23T23:23:59.660Z,58.48
2019-02-23T23:26:30.227Z,58.70
2019-02-23T23:29:00.596Z,58.96
2019-02-23T23:31:31.230Z,58.63
2019-02-23T23:34:01.847Z,58.09
2019-02-23T23:36:32.183Z,58.47
2019-02-23T23:39:02.460Z,58.23
2019-02-23T23:41:34.935Z,58.46
2019-02-23T23:44:05.219Z,59.09
2019-02-23T23:46:35.554Z,58.69
2019-02-23T23:49:06.117Z,58.70
2019-02-23T23:51:36.800Z,59.57
2019-02-23T23:54:07.199Z,59.62
2019-02-23T23:56:38.017Z,59.41
2019-02-23T23:59:08.618Z,59.36
